• Join FlightAware (Why Join?)
  • Login
  • US Flag 
01:29AM EST


 

Airport Tracker/Info


-or-


 

Live Flight TrackerFlight Track Log ✈ AAL963 ✈ 07-Jul-2013 ✈ KDFW - SBGR / GRU

Flight Track Log - Related Links

Times and Time Zones

All times are in EDT time to prevent confusion due to time zone crossing. See the AAL963 flight status page for this flight to view local times or setup timezone preferences in your user account.

Time Position Orientation Groundspeed Altitude Reporting Facility
EDT Latitude Longitude Course Direction KTS MPH feet Rate Location/Type
09:19PM 32.8160 -97.0690 194° South 226 260 2,600  Level FlightAware
09:19PM 32.7920 -97.0750 192° South 255 293 2,900 1,380 Climbing FlightAware
09:19PM 32.7610 -97.0770 183° South 258 297 3,700 1,980 Climbing FlightAware
09:20PM 32.7310 -97.0750 177° South 264 304 4,600 2,040 Climbing FlightAware
09:20PM 32.6950 -97.0670 169° South 266 306 5,700 2,220 Climbing FlightAware
09:21PM 32.6730 -97.0540 154° Southeast 271 312 6,400 2,160 Climbing FlightAware
09:21PM 32.6430 -97.0340 151° Southeast 273 314 7,400 1,920 Climbing FlightAware
09:21PM 32.6340 -97.0290 155° Southeast 275 316 7,700 2,280 Climbing FlightAware
09:22PM 32.5960 -97.0050 152° Southeast 279 321 8,900 2,400 Climbing FlightAware
09:22PM 32.5620 -96.9850 154° Southeast 283 326 9,900 1,380 Climbing FlightAware
09:23PM 32.5090 -96.9520 152° Southeast 319 367 10,600 840 Climbing FlightAware
09:24PM 32.4500 -96.9160 153° Southeast 359 413 11,100 960 Climbing FlightAware
09:24PM 32.3810 -96.8740 153° Southeast 386 444 12,000 1,680 Climbing FlightAware
09:25PM 32.3180 -96.8360 153° Southeast 390 449 13,500 1,920 Climbing FlightAware
09:26PM 32.2470 -96.8010 157° South 400 460 14,700 1,620 Climbing FlightAware
09:26PM 32.1649 -96.7696 162° South 412 474 15,900 1,500 Climbing FlightAware ADS-B
09:27PM 32.1088 -96.7485 162° South 421 484 16,600 1,500 Climbing FlightAware ADS-B
09:28PM 32.0484 -96.7256 162° South 428 493 17,500 1,560 Climbing FlightAware ADS-B
09:28PM 31.9387 -96.6839 162° South 431 496 19,000 1,560 Climbing FlightAware ADS-B
09:29PM 31.8748 -96.6597 162° South 442 509 19,900 1,680 Climbing FlightAware ADS-B
09:30PM 31.8150 -96.6355 161° South 442 509 20,800 1,560 Climbing FlightAware ADS-B
09:30PM 31.7523 -96.6093 160° South 449 517 21,600 1,440 Climbing FlightAware ADS-B
09:31PM 31.6861 -96.5820 161° South 454 522 22,400 1,380 Climbing FlightAware ADS-B
09:31PM 31.6256 -96.5573 161° South 459 528 23,100 1,200 Climbing FlightAware ADS-B
09:32PM 31.5614 -96.5313 161° South 464 534 23,700 1,200 Climbing FlightAware ADS-B
09:32PM 31.4978 -96.5055 161° South 470 541 24,400 1,200 Climbing FlightAware ADS-B
09:34PM 31.2163 -96.4009 162° South 483 556 27,000 1,080 Climbing FlightAware ADS-B
09:35PM 31.1852 -96.3836 152° Southeast 481 554 27,200 900 Climbing FlightAware ADS-B
09:35PM 31.1553 -96.3577 143° Southeast 478 550 27,500 1,020 Climbing FlightAware ADS-B
09:35PM 31.1296 -96.3246 129° Southeast 477 549 27,800 900 Climbing FlightAware ADS-B
09:36PM 31.0523 -96.1989 125° Southeast 481 554 28,700 840 Climbing FlightAware ADS-B
09:37PM 30.9728 -96.0692 126° Southeast 487 560 29,500 660 Climbing FlightAware ADS-B
09:38PM 30.8914 -95.9376 126° Southeast 499 574 30,100 660 Climbing FlightAware ADS-B
09:39PM 30.8059 -95.8000 126° Southeast 503 579 30,900 780 Climbing FlightAware ADS-B
09:40PM 30.7592 -95.7324 130° Southeast 506 582 31,400 780 Climbing FlightAware ADS-B
09:40PM 30.7134 -95.6759 133° Southeast 507 583 31,700 600 Climbing FlightAware ADS-B
09:42PM 30.5006 -95.4409 137° Southeast 487 560 33,000 300 Climbing FlightAware ADS-B
09:45PM 30.3010 -95.2224 137° Southeast 487 560 33,000  Level FlightAware ADS-B
09:45PM 30.2497 -95.1664 137° Southeast 487 560 33,000  Level FlightAware ADS-B
09:46PM 30.1998 -95.1119 137° Southeast 488 562 33,000  Level FlightAware ADS-B
09:46PM 30.1504 -95.0582 137° Southeast 490 564 33,000  Level FlightAware ADS-B
09:47PM 30.1006 -95.0041 137° Southeast 490 564 33,000  Level FlightAware ADS-B
09:48PM 30.0005 -94.8954 137° Southeast 491 565 33,000  Level FlightAware ADS-B
09:48PM 29.9508 -94.8417 137° Southeast 491 565 33,000  Level FlightAware ADS-B
09:50PM 29.7989 -94.6778 137° Southeast 495 570 33,000  Level FlightAware ADS-B
09:52PM 29.5954 -94.4593 137° Southeast 497 572 33,000  Level FlightAware ADS-B
09:52PM 29.5442 -94.4046 137° Southeast 497 572 33,000  Level FlightAware ADS-B
09:53PM 29.4918 -94.3486 137° Southeast 499 574 33,000  Level FlightAware ADS-B
09:54PM 29.3882 -94.2385 137° Southeast 498 573 33,000  Level FlightAware ADS-B
09:54PM 29.3366 -94.1832 137° Southeast 498 573 33,000  Level FlightAware ADS-B
09:55PM 29.2855 -94.1288 137° Southeast 498 573 33,000  Level FlightAware ADS-B
09:55PM 29.2323 -94.0722 137° Southeast 498 573 33,000  Level FlightAware ADS-B
09:56PM 29.1813 -94.0182 137° Southeast 500 575 33,000  Level FlightAware ADS-B
09:56PM 29.1186 -93.9518 137° Southeast 501 577 33,000  Level FlightAware ADS-B
09:57PM 29.0556 -93.8806 137° Southeast 499 574 33,000 -60 Level Houston Center
09:58PM 28.9511 -93.7800 140° Southeast 493 567 32,900  Descending Houston Center
09:59PM 28.8481 -93.6692 137° Southeast 500 575 33,000  Climbing Houston Center
10:00PM 28.7458 -93.5589 137° Southeast 506 582 33,000 -60 Level Houston Center
10:01PM 28.6239 -93.4322 138° Southeast 500 575 32,900  Descending Houston Center
10:02PM 28.5203 -93.3233 137° Southeast 500 575 33,000  Climbing Houston Center
10:03PM 28.4197 -93.2183 137° Southeast 500 575 32,900  Descending Houston Center
10:04PM 28.3172 -93.1136 138° Southeast 497 572 33,000  Climbing Houston Center
10:05PM 28.2147 -93.0039 137° Southeast 504 580 32,900 -60 Descending Houston Center
10:06PM 28.1114 -92.9006 139° Southeast 498 573 32,900  Level Houston Center
10:07PM 28.0089 -92.7944 138° Southeast 500 575 33,000 -300 Climbing Houston Center
10:12PM 30.8240 -95.8290 138° Southeast 503 579 31,200 -360 Descending FlightAware
10:13PM 30.7610 -95.7350 128° Southeast 503 579 31,200  Level FlightAware
10:14PM 30.7170 -95.6700 128° Southeast 503 579 31,200  Level FlightAware
10:15PM 30.6590 -95.5830 128° Southeast 503 579 31,200  Level FlightAware
10:15PM 30.6120 -95.5140 128° Southeast 503 579 31,200  Level FlightAware
10:16PM 30.5670 -95.4470 128° Southeast 503 579 31,200  Level FlightAware
10:17PM 30.5090 -95.3600 128° Southeast 503 579 31,200  Level FlightAware
10:17PM 30.4670 -95.2990 129° Southeast 503 579 31,200  Level FlightAware
10:18PM 30.4090 -95.2120 128° Southeast 503 579 31,200  Level FlightAware
10:19PM 30.3650 -95.1470 128° Southeast 503 579 31,200  Level FlightAware
10:19PM 30.3070 -95.0600 128° Southeast 503 579 31,200  Level FlightAware
10:20PM 30.2630 -94.9950 128° Southeast 503 579 31,200  Level FlightAware
10:21PM 30.2040 -94.9080 128° Southeast 503 579 31,200  Level FlightAware
10:21PM 30.1600 -94.8440 128° Southeast 503 579 31,200  Level FlightAware
10:22PM 30.1020 -94.7570 128° Southeast 503 579 31,200 120 Level FlightAware
10:25PM 29.8832 -94.4915 134° Southeast  Level Estimated
10:26PM 29.7912 -94.3804 134° Southeast  Level Estimated
10:27PM 29.6992 -94.2696 134° Southeast  Level Estimated
10:28PM 29.6070 -94.1589 134° Southeast  Level Estimated
10:29PM 29.5147 -94.0485 134° Southeast  Level Estimated
10:30PM 29.4224 -93.9382 134° Southeast  Level Estimated
10:31PM 29.3300 -93.8282 134° Southeast  Level Estimated
10:32PM 29.2374 -93.7183 134° Southeast  Level Estimated
10:33PM 29.1448 -93.6087 134° Southeast  Level Estimated
10:34PM 29.0521 -93.4992 134° Southeast  Level Estimated
10:35PM 28.9594 -93.3900 134° Southeast  Level Estimated
10:36PM 28.8665 -93.2809 134° Southeast  Level Estimated
10:37PM 28.7735 -93.1720 134° Southeast  Level Estimated
10:38PM 28.6805 -93.0634 134° Southeast  Level Estimated
10:39PM 28.5873 -92.9549 134° Southeast  Level Estimated
10:40PM 28.4956 -92.8484 134° Southeast  Level Estimated
10:41PM 28.4039 -92.7420 134° Southeast  Level Estimated
10:42PM 28.3120 -92.6359 134° Southeast  Level Estimated
10:43PM 28.2201 -92.5299 135° Southeast  Level Estimated
10:44PM 28.1280 -92.4241 135° Southeast  Level Estimated
10:45PM 28.0359 -92.3186 135° Southeast  Level Estimated
10:46PM 27.9438 -92.2131 135° Southeast  Level Estimated
10:47PM 27.8515 -92.1079 135° Southeast  Level Estimated
10:48PM 27.7591 -92.0028 135° Southeast  Level Estimated
10:49PM 27.6667 -91.8979 135° Southeast  Level Estimated
10:49PM 23.3990 -89.0230 135° Southeast 504 580 35,000  Level FlightAware
10:49PM 23.3230 -88.9660 145° Southeast 504 580 35,000  Level FlightAware
10:50PM 23.2210 -88.8900 146° Southeast 504 580 35,000  Level FlightAware
10:51PM 23.1490 -88.8370 146° Southeast 503 579 35,000  Level FlightAware
10:51PM 23.0900 -88.7930 146° Southeast 504 580 35,000  Level FlightAware
10:52PM 23.0130 -88.7360 146° Southeast 504 580 35,000  Level FlightAware
10:53PM 22.9220 -88.6680 145° Southeast 504 580 35,000  Level FlightAware
10:53PM 22.8620 -88.6220 145° Southeast 501 577 35,000  Level FlightAware
10:54PM 22.7920 -88.5550 139° Southeast 499 574 35,000  Level FlightAware
10:55PM 22.7020 -88.4690 139° Southeast 499 574 35,000  Level FlightAware
10:55PM 22.6340 -88.4040 139° Southeast 496 571 35,000  Level FlightAware
10:56PM 22.5670 -88.3360 137° Southeast 494 568 35,000  Level FlightAware
10:57PM 22.4930 -88.2640 138° Southeast 494 568 35,000  Level FlightAware
10:57PM 22.4210 -88.1930 138° Southeast 496 571 35,000  Level FlightAware
10:58PM 22.3660 -88.1400 138° Southeast 499 574 35,000  Level FlightAware
10:59PM 22.2930 -88.0680 138° Southeast 499 574 35,000  Level FlightAware
10:59PM 22.2250 -88.0010 138° Southeast 499 574 35,000  Level FlightAware
11:00PM 22.1550 -87.9340 138° Southeast 499 574 35,000  Level FlightAware
11:01PM 22.0930 -87.8730 138° Southeast 498 573 35,000  Level FlightAware
11:01PM 22.0210 -87.8030 138° Southeast 499 574 35,000  Level FlightAware
11:02PM 21.9500 -87.7340 138° Southeast 499 574 35,000  Level FlightAware
11:03PM 21.8710 -87.6570 138° Southeast 497 572 35,000  Level FlightAware
11:03PM 21.7960 -87.5840 138° Southeast 496 571 35,000  Level FlightAware
11:04PM 21.7260 -87.5160 138° Southeast 495 570 35,000  Level FlightAware
11:05PM 21.6560 -87.4480 138° Southeast 494 568 35,000  Level FlightAware
11:06PM 21.5700 -87.3660 138° Southeast 493 567 35,000  Level FlightAware
11:06PM 21.5010 -87.2980 137° Southeast 492 566 35,000  Level FlightAware
11:07PM 21.4300 -87.2300 138° Southeast 492 566 35,000  Level FlightAware
11:08PM 21.3550 -87.1580 138° Southeast 492 566 35,000  Level FlightAware
11:08PM 21.2880 -87.0930 138° Southeast 492 566 35,000  Level FlightAware
11:09PM 21.2160 -87.0240 138° Southeast 491 565 35,000  Level FlightAware
11:10PM 21.1480 -86.9590 138° Southeast 490 564 35,000  Level FlightAware
11:10PM 21.0710 -86.8850 138° Southeast 490 564 35,000  Level FlightAware
11:11PM 20.9980 -86.8160 139° Southeast 490 564 35,000  Level FlightAware
11:12PM 20.9340 -86.7550 138° Southeast 492 566 35,000  Level FlightAware
11:12PM 20.8730 -86.6970 138° Southeast 492 566 35,000  Level FlightAware
11:13PM 20.8020 -86.6290 138° Southeast 495 570 35,000  Level FlightAware
11:14PM 20.7340 -86.5640 138° Southeast 495 570 35,000  Level FlightAware
11:14PM 20.6680 -86.5010 138° Southeast 495 570 35,000  Level FlightAware
11:15PM 20.5970 -86.4340 139° Southeast 496 571 35,000  Level FlightAware
11:16PM 20.5230 -86.3640 138° Southeast 497 572 35,000  Level FlightAware
11:16PM 20.4650 -86.3080 138° Southeast 497 572 35,000  Level FlightAware
11:17PM 20.3830 -86.2320 139° Southeast 496 571 35,000  Level FlightAware
11:18PM 20.3270 -86.1770 137° Southeast 496 571 35,000  Level FlightAware
11:19PM 20.2570 -86.1110 139° Southeast 496 571 35,000  Level FlightAware
11:19PM 20.1700 -86.0310 139° Southeast 499 574 35,000  Level FlightAware
11:20PM 20.1010 -85.9660 138° Southeast 498 573 35,000  Level FlightAware
11:21PM 20.0260 -85.8950 138° Southeast 497 572 35,000  Level FlightAware
11:21PM 19.9680 -85.8400 138° Southeast 496 571 35,000  Level FlightAware
11:22PM 19.8980 -85.7750 139° Southeast 495 570 35,000  Level FlightAware
11:23PM 19.8220 -85.7030 138° Southeast 496 571 35,000  Level FlightAware
11:23PM 19.7470 -85.6320 138° Southeast 496 571 35,000  Level FlightAware
11:24PM 19.6800 -85.5690 138° Southeast 495 570 35,000  Level FlightAware
11:25PM 19.6270 -85.5180 138° Southeast 495 570 35,000  Level FlightAware
11:25PM 19.5340 -85.4320 139° Southeast 497 572 35,000  Level FlightAware
11:26PM 19.4800 -85.3820 139° Southeast 495 570 35,000  Level FlightAware
11:27PM 19.4030 -85.3100 139° Southeast 497 572 35,000  Level FlightAware
11:27PM 19.3310 -85.2420 138° Southeast 498 573 35,000  Level FlightAware
11:28PM 19.2670 -85.1820 138° Southeast 498 573 35,000  Level FlightAware
11:29PM 19.1970 -85.1150 138° Southeast 498 573 35,000  Level FlightAware
11:29PM 19.1430 -85.0640 138° Southeast 498 573 35,000  Level FlightAware
11:30PM 19.0720 -84.9960 138° Southeast 498 573 35,000  Level FlightAware
11:31PM 19.0190 -84.9460 138° Southeast 498 573 35,000  Level FlightAware
11:32PM 18.9490 -84.8790 138° Southeast 498 573 35,000  Level FlightAware
11:32PM 18.8970 -84.8290 138° Southeast 498 573 35,000  Level FlightAware
11:33PM 18.8260 -84.7620 138° Southeast 498 573 35,000  Level FlightAware
11:34PM 18.7730 -84.7120 138° Southeast 498 573 35,000  Level FlightAware
11:35PM 18.7030 -84.6450 138° Southeast 498 573 35,000  Level FlightAware
11:35PM 18.6510 -84.5950 138° Southeast 498 573 35,000  Level FlightAware
11:36PM 18.5800 -84.5280 138° Southeast 498 573 35,000  Level FlightAware
11:37PM 18.5270 -84.4780 138° Southeast 498 573 35,000  Level FlightAware
11:37PM 18.4580 -84.4120 138° Southeast 498 573 35,000  Level FlightAware
11:40PM 18.2485 -84.2068 137° Southeast  Level Estimated
11:41PM 18.1525 -84.1130 137° Southeast  Level Estimated
11:42PM 18.0564 -84.0193 137° Southeast  Level Estimated
11:43PM 17.9603 -83.9257 137° Southeast  Level Estimated
11:44PM 17.8641 -83.8322 137° Southeast  Level Estimated
11:45PM 17.7679 -83.7388 137° Southeast  Level Estimated
11:46PM 17.6716 -83.6455 137° Southeast  Level Estimated
11:47PM 17.5753 -83.5523 137° Southeast  Level Estimated
11:48PM 17.4790 -83.4592 137° Southeast  Level Estimated
11:49PM 17.3826 -83.3662 137° Southeast  Level Estimated
11:50PM 17.2862 -83.2733 137° Southeast  Level Estimated
11:51PM 17.1897 -83.1805 137° Southeast  Level Estimated
11:52PM 17.0932 -83.0878 137° Southeast  Level Estimated
11:53PM 16.9966 -82.9952 137° Southeast  Level Estimated
11:54PM 16.9000 -82.9027 137° Southeast  Level Estimated
11:55PM 16.8034 -82.8103 138° Southeast  Level Estimated
11:56PM 16.7067 -82.7179 138° Southeast  Level Estimated
11:57PM 16.6100 -82.6257 138° Southeast  Level Estimated
11:58PM 16.5132 -82.5336 138° Southeast  Level Estimated
11:59PM 16.4164 -82.4415 138° Southeast  Level Estimated
12:00AM 16.3196 -82.3496 138° Southeast  Level Estimated
12:01AM 16.2227 -82.2577 138° Southeast  Level Estimated
12:02AM 16.1258 -82.1659 138° Southeast  Level Estimated
12:03AM 16.0288 -82.0743 138° Southeast  Level Estimated
12:04AM 15.9318 -81.9827 138° Southeast  Level Estimated
12:05AM 15.8348 -81.8912 138° Southeast  Level Estimated
12:06AM 15.7377 -81.7997 138° Southeast  Level Estimated
12:07AM 15.6406 -81.7084 138° Southeast  Level Estimated
12:08AM 15.5434 -81.6171 138° Southeast  Level Estimated
12:09AM 15.4462 -81.5260 138° Southeast  Level Estimated
12:10AM 15.3490 -81.4349 138° Southeast  Level Estimated
12:11AM 15.2517 -81.3439 138° Southeast  Level Estimated
12:12AM 15.1544 -81.2530 138° Southeast  Level Estimated
12:13AM 15.0571 -81.1622 138° Southeast  Level Estimated
12:14AM 14.9597 -81.0715 138° Southeast  Level Estimated
12:15AM 14.8623 -80.9808 138° Southeast  Level Estimated
12:16AM 14.7648 -80.8902 138° Southeast  Level Estimated
12:17AM 14.6674 -80.7998 138° Southeast  Level Estimated
12:18AM 14.5698 -80.7093 138° Southeast  Level Estimated
12:19AM 14.4723 -80.6190 138° Southeast  Level Estimated
12:20AM 14.3747 -80.5288 138° Southeast  Level Estimated
12:21AM 14.2771 -80.4386 138° Southeast  Level Estimated
12:22AM 14.1794 -80.3485 138° Southeast  Level Estimated
12:23AM 14.0817 -80.2585 138° Southeast  Level Estimated
12:24AM 13.9840 -80.1685 138° Southeast  Level Estimated
12:25AM 13.8863 -80.0787 138° Southeast  Level Estimated
12:26AM 13.7885 -79.9889 138° Southeast  Level Estimated
12:27AM 13.6907 -79.8992 138° Southeast  Level Estimated
12:28AM 13.5928 -79.8095 138° Southeast  Level Estimated
12:29AM 13.4949 -79.7200 138° Southeast  Level Estimated
12:30AM 13.3970 -79.6305 138° Southeast  Level Estimated
12:31AM 13.2991 -79.5411 138° Southeast  Level Estimated
12:32AM 13.2011 -79.4517 138° Southeast  Level Estimated
12:33AM 13.1031 -79.3624 138° Southeast  Level Estimated
12:34AM 13.0050 -79.2732 138° Southeast  Level Estimated
12:35AM 12.9070 -79.1841 138° Southeast  Level Estimated
12:36AM 12.8089 -79.0950 138° Southeast  Level Estimated
12:37AM 12.7107 -79.0060 138° Southeast  Level Estimated
12:38AM 12.6126 -78.9171 139° Southeast  Level Estimated
12:39AM 12.5144 -78.8282 139° Southeast  Level Estimated
12:40AM 12.4162 -78.7395 139° Southeast  Level Estimated
12:41AM 12.3179 -78.6507 139° Southeast  Level Estimated
12:42AM 12.2196 -78.5621 139° Southeast  Level Estimated
12:43AM 12.1213 -78.4735 139° Southeast  Level Estimated
12:44AM 12.0230 -78.3850 139° Southeast  Level Estimated
12:45AM 11.9247 -78.2965 139° Southeast  Level Estimated
12:46AM 11.8263 -78.2081 139° Southeast  Level Estimated
12:46AM 11.5140 -77.8460 139° Southeast 465 535 37,000  Level FlightAware
12:47AM 11.7278 -78.1198 139° Southeast  Level Estimated
12:47AM 11.4530 -77.7990 143° Southeast 469 540 37,000  Level FlightAware
12:48AM 11.3070 -77.6860 143° Southeast 467 537 37,000  Level FlightAware
12:49AM 11.2480 -77.6390 142° Southeast 467 537 37,000  Level FlightAware
12:49AM 11.1960 -77.5970 142° Southeast 467 537 37,000  Level FlightAware
12:50AM 11.1260 -77.5420 142° Southeast 467 537 37,000  Level FlightAware
12:51AM 11.0040 -77.4510 144° Southeast 468 539 37,000  Level FlightAware
12:52AM 10.9350 -77.3940 141° Southeast 460 529 37,000  Level FlightAware
12:52AM 10.8700 -77.3340 138° Southeast 461 531 37,000  Level FlightAware
12:53AM 10.7980 -77.2660 137° Southeast 465 535 37,000  Level FlightAware
12:54AM 10.7150 -77.1890 138° Southeast 464 534 37,000  Level FlightAware
12:54AM 10.6670 -77.1440 137° Southeast 464 534 37,000  Level FlightAware
12:55AM 10.6190 -77.0980 137° Southeast 464 534 37,000  Level FlightAware
12:56AM 10.5710 -77.0520 137° Southeast 464 534 37,000  Level FlightAware
12:56AM 10.4760 -76.9670 139° Southeast 37,000  Level FlightAware
12:57AM 10.3950 -76.8910 137° Southeast 463 533 37,000  Level FlightAware
12:58AM 10.3290 -76.8300 138° Southeast 462 532 37,000  Level FlightAware
12:59AM 10.2650 -76.7710 138° Southeast 463 533 37,000  Level FlightAware
12:59AM 10.2040 -76.7140 137° Southeast 464 534 37,000  Level FlightAware
01:00AM 10.1590 -76.6720 137° Southeast 465 535 37,000  Level FlightAware
01:01AM 10.0490 -76.5710 138° Southeast 465 535 37,000  Level FlightAware
01:01AM 9.9870 -76.5130 137° Southeast 462 532 37,000  Level FlightAware
01:02AM 9.9310 -76.4610 138° Southeast 460 529 37,000  Level FlightAware
01:03AM 9.8410 -76.3780 138° Southeast 460 529 37,000  Level FlightAware
01:04AM 9.7780 -76.3200 138° Southeast 461 531 37,000  Level FlightAware
01:04AM 9.7030 -76.2500 137° Southeast 464 534 37,000  Level FlightAware
01:05AM 9.6400 -76.1920 138° Southeast 464 534 37,000  Level FlightAware
01:06AM 9.5690 -76.1270 138° Southeast 465 535 37,000  Level FlightAware
01:07AM 9.4970 -76.0600 137° Southeast 466 536 37,000  Level FlightAware
01:07AM 9.4430 -76.0110 138° Southeast 466 536 37,000  Level FlightAware
01:08AM 9.3770 -75.9500 138° Southeast 466 536 37,000  Level FlightAware
01:09AM 9.3170 -75.8940 137° Southeast 466 536 37,000  Level FlightAware
01:09AM 9.2360 -75.8200 138° Southeast 470 541 37,000  Level FlightAware
01:11AM 9.0970 -75.6920 138° Southeast 471 542 37,000  Level FlightAware
01:12AM 9.0280 -75.6290 138° Southeast 471 542 37,000  Level FlightAware
01:12AM 8.9370 -75.5450 138° Southeast 471 542 37,000  Level FlightAware
01:14AM 8.8300 -75.4470 138° Southeast 471 542 37,000  Level FlightAware
01:14AM 8.7610 -75.3830 137° Southeast 472 543 37,000  Level FlightAware
01:15AM 8.7060 -75.3330 138° Southeast 472 543 37,000  Level FlightAware
01:16AM 8.6200 -75.2550 138° Southeast 473 544 37,000  Level FlightAware
01:16AM 8.5620 -75.2010 137° Southeast 474 545 37,000  Level FlightAware
01:17AM 8.4880 -75.1340 138° Southeast 473 544 37,000  Level FlightAware
01:18AM 8.4270 -75.0780 138° Southeast 473 544 37,000  Level FlightAware
01:18AM 8.3600 -75.0170 138° Southeast 475 547 37,000  Level FlightAware
01:19AM 8.2870 -74.9530 139° Southeast 478 550 37,000  Level FlightAware
01:20AM 8.2070 -74.9020 148° Southeast 482 555 37,000  Level FlightAware
01:20AM 8.1340 -74.8560 148° Southeast 483 556 37,000  Level FlightAware
01:21AM 8.0440 -74.8080 152° Southeast 481 554 37,000  Level FlightAware
01:22AM 7.9610 -74.7660 153° Southeast 481 554 37,000  Level FlightAware
01:23AM 7.8820 -74.7270 154° Southeast 481 554 37,000  Level FlightAware
01:23AM 7.8110 -74.6920 154° Southeast 481 554 37,000  Level FlightAware
01:24AM 7.7250 -74.6500 154° Southeast 479 551 37,000  Level FlightAware
01:25AM 7.6440 -74.6110 154° Southeast 478 550 37,000  Level FlightAware
01:25AM 7.5790 -74.5790 154° Southeast 478 550 37,000  Level FlightAware
01:26AM 7.4810 -74.5330 155° Southeast 474 545 37,000  Level FlightAware
01:27AM 7.4050 -74.4970 155° Southeast 471 542 37,000  Level FlightAware
01:27AM 7.3150 -74.4540 155° Southeast 469 540 37,000  Level FlightAware
01:28AM 7.2370 -74.4150 154° Southeast 469 540 37,000  Level FlightAware
01:29AM 7.1680 -74.3820 155° Southeast 471 542 37,000  Level FlightAware
01:29AM 7.0700 -74.3330 154° Southeast 472 543 37,000  Level FlightAware
01:30AM 7.0090 -74.3020 153° Southeast 473 544 37,000  Level FlightAware
01:31AM 6.9290 -74.2610 153° Southeast 473 544 37,000  Level FlightAware
01:31AM 6.8670 -74.2300 154° Southeast 473 544 37,000  Level FlightAware
01:32AM 6.7630 -74.1760 153° Southeast 475 547 37,000  Level FlightAware
01:33AM 6.6870 -74.1360 152° Southeast 477 549 37,000  Level FlightAware
01:33AM 6.6090 -74.0840 146° Southeast 480 552 37,000  Level FlightAware
01:34AM 6.5320 -74.0290 145° Southeast 481 554 37,000  Level FlightAware
01:35AM 6.4600 -73.9760 144° Southeast 483 556 37,000  Level FlightAware
01:35AM 6.3760 -73.9150 144° Southeast 485 558 37,000  Level FlightAware
01:36AM 6.3050 -73.8630 144° Southeast 486 559 37,000  Level FlightAware
01:37AM 6.2300 -73.8090 144° Southeast 488 562 37,000  Level FlightAware
01:37AM 6.1640 -73.7600 144° Southeast 489 563 37,000  Level FlightAware
01:38AM 6.0830 -73.7010 144° Southeast 490 564 37,000  Level FlightAware
01:39AM 6.0140 -73.6510 144° Southeast 490 564 37,000  Level FlightAware
01:39AM 5.9400 -73.5970 144° Southeast 490 564 37,000  Level FlightAware
01:40AM 5.8660 -73.5430 144° Southeast 492 566 37,000  Level FlightAware
01:41AM 5.7930 -73.4900 144° Southeast 493 567 37,000  Level FlightAware
01:42AM 5.7110 -73.4300 144° Southeast 491 565 37,000  Level FlightAware
01:42AM 5.6380 -73.3770 144° Southeast 488 562 37,000  Level FlightAware
01:43AM 5.5540 -73.3160 144° Southeast 488 562 37,000  Level FlightAware
01:44AM 5.4800 -73.2620 144° Southeast 487 560 37,000  Level FlightAware
01:44AM 5.4210 -73.2190 144° Southeast 486 559 37,000  Level FlightAware
01:45AM 5.3160 -73.1400 143° Southeast 484 557 37,000  Level FlightAware
01:46AM 5.2280 -73.0780 145° Southeast 480 552 37,000  Level FlightAware
01:47AM 5.1440 -73.0180 145° Southeast 478 550 37,000  Level FlightAware
01:47AM 5.0730 -72.9650 143° Southeast 478 550 37,000  Level FlightAware
01:48AM 5.0020 -72.9140 144° Southeast 478 550 37,000  Level FlightAware
01:49AM 4.9000 -72.8400 144° Southeast 478 550 37,000  Level FlightAware
01:50AM 4.8460 -72.8000 144° Southeast 478 550 37,000  Level FlightAware
01:51AM 4.7530 -72.7330 144° Southeast 478 550 37,000  Level FlightAware
01:51AM 4.6980 -72.6930 144° Southeast 478 550 37,000  Level FlightAware
01:52AM 4.6420 -72.6520 144° Southeast 478 550 37,000  Level FlightAware
01:52AM 4.5870 -72.6120 144° Southeast 478 550 37,000  Level FlightAware
01:53AM 4.5320 -72.5720 144° Southeast 478 550 37,000  Level FlightAware
01:54AM 4.4560 -72.5170 144° Southeast 478 550 37,000  Level FlightAware
01:55AM 4.4020 -72.4770 144° Southeast 478 550 37,000  Level FlightAware
01:56AM 4.3070 -72.4080 144° Southeast 478 550 37,000  Level FlightAware
01:56AM 4.2530 -72.3680 144° Southeast 478 550 37,000  Level FlightAware
01:57AM 4.1800 -72.3150 144° Southeast 478 550 37,000  Level FlightAware
01:58AM 4.1250 -72.2750 144° Southeast 478 550 37,000  Level FlightAware
01:58AM 4.0690 -72.2340 144° Southeast 478 550 37,000  Level FlightAware
02:01AM 3.8181 -72.0520 145° Southeast  Level FlightAware Approximate
02:02AM 3.7110 -71.9764 145° Southeast  Level FlightAware Approximate
02:03AM 3.6038 -71.9009 145° Southeast  Level FlightAware Approximate
02:04AM 3.4967 -71.8253 145° Southeast  Level FlightAware Approximate
02:05AM 3.3896 -71.7498 145° Southeast  Level FlightAware Approximate
02:06AM 3.2824 -71.6743 145° Southeast  Level FlightAware Approximate
02:07AM 3.1753 -71.5988 145° Southeast  Level FlightAware Approximate
02:08AM 3.0681 -71.5233 145° Southeast  Level FlightAware Approximate
02:09AM 2.9609 -71.4479 145° Southeast  Level FlightAware Approximate
02:10AM 2.8538 -71.3724 145° Southeast  Level FlightAware Approximate
02:11AM 2.7466 -71.2970 145° Southeast  Level FlightAware Approximate
02:12AM 2.6394 -71.2215 145° Southeast  Level FlightAware Approximate
02:13AM 2.5322 -71.1461 145° Southeast  Level FlightAware Approximate
02:14AM 2.4251 -71.0707 145° Southeast  Level FlightAware Approximate
02:15AM 2.3179 -70.9954 145° Southeast  Level FlightAware Approximate
02:16AM 2.2107 -70.9200 145° Southeast  Level FlightAware Approximate
02:17AM 2.1035 -70.8446 145° Southeast  Level FlightAware Approximate
02:18AM 1.9963 -70.7693 145° Southeast  Level FlightAware Approximate
02:19AM 1.8891 -70.6939 145° Southeast  Level FlightAware Approximate
02:20AM 1.7818 -70.6186 145° Southeast  Level FlightAware Approximate
02:21AM 1.6746 -70.5433 145° Southeast  Level FlightAware Approximate
02:22AM 1.5674 -70.4680 145° Southeast  Level FlightAware Approximate
02:23AM 1.4602 -70.3926 145° Southeast  Level FlightAware Approximate
02:24AM 1.3530 -70.3174 145° Southeast  Level FlightAware Approximate
02:25AM 1.2459 -70.2422 145° Southeast  Level FlightAware Approximate
02:26AM 1.1472 -70.1566 138° Southeast  Level FlightAware Approximate
02:27AM 1.0495 -70.0696 138° Southeast  Level FlightAware Approximate
02:28AM 0.9518 -69.9827 138° Southeast  Level FlightAware Approximate
02:29AM 0.8541 -69.8957 138° Southeast  Level FlightAware Approximate
02:30AM 0.7564 -69.8087 138° Southeast  Level FlightAware Approximate
02:31AM 0.6587 -69.7218 138° Southeast  Level FlightAware Approximate
02:32AM 0.5610 -69.6348 138° Southeast  Level FlightAware Approximate
02:33AM 0.4633 -69.5479 138° Southeast  Level FlightAware Approximate
02:34AM 0.3656 -69.4609 138° Southeast  Level FlightAware Approximate
02:35AM 0.2680 -69.3740 138° Southeast  Level FlightAware Approximate
02:36AM 0.1703 -69.2870 138° Southeast  Level FlightAware Approximate
02:37AM 0.0726 -69.2001 138° Southeast  Level FlightAware Approximate
02:38AM -0.0251 -69.1132 138° Southeast  Level FlightAware Approximate
02:39AM -0.1228 -69.0262 138° Southeast  Level FlightAware Approximate
02:40AM -0.2205 -68.9393 138° Southeast  Level FlightAware Approximate
02:41AM -0.3182 -68.8523 138° Southeast  Level FlightAware Approximate
02:42AM -0.4159 -68.7654 138° Southeast  Level FlightAware Approximate
02:43AM -0.5136 -68.6785 138° Southeast  Level FlightAware Approximate
02:44AM -0.6113 -68.5915 138° Southeast  Level FlightAware Approximate
02:45AM -0.7090 -68.5046 138° Southeast  Level FlightAware Approximate
02:46AM -0.8067 -68.4176 138° Southeast  Level FlightAware Approximate
02:47AM -0.9043 -68.3306 138° Southeast  Level FlightAware Approximate
02:48AM -1.0020 -68.2437 138° Southeast  Level FlightAware Approximate
02:49AM -1.0997 -68.1567 138° Southeast  Level FlightAware Approximate
02:50AM -1.1974 -68.0697 138° Southeast  Level FlightAware Approximate
02:51AM -1.2951 -67.9827 138° Southeast  Level FlightAware Approximate
02:52AM -1.3927 -67.8958 138° Southeast  Level FlightAware Approximate
02:53AM -1.4904 -67.8088 138° Southeast  Level FlightAware Approximate
02:54AM -1.5881 -67.7218 138° Southeast  Level FlightAware Approximate
02:55AM -1.6857 -67.6348 138° Southeast  Level FlightAware Approximate
02:56AM -1.7834 -67.5477 138° Southeast  Level FlightAware Approximate
02:57AM -1.8811 -67.4607 138° Southeast  Level FlightAware Approximate
02:58AM -1.9787 -67.3737 138° Southeast  Level FlightAware Approximate
02:59AM -2.0764 -67.2866 138° Southeast  Level FlightAware Approximate
03:00AM -2.1740 -67.1995 138° Southeast  Level FlightAware Approximate
03:01AM -2.2716 -67.1125 138° Southeast  Level FlightAware Approximate
03:02AM -2.3693 -67.0254 138° Southeast  Level FlightAware Approximate
03:03AM -2.4669 -66.9383 138° Southeast  Level FlightAware Approximate
03:04AM -2.5645 -66.8512 138° Southeast  Level FlightAware Approximate
03:05AM -2.6621 -66.7641 138° Southeast  Level FlightAware Approximate
03:06AM -2.7597 -66.6769 138° Southeast  Level FlightAware Approximate
03:07AM -2.8573 -66.5898 138° Southeast  Level FlightAware Approximate
03:08AM -2.9549 -66.5026 138° Southeast  Level FlightAware Approximate
03:09AM -3.0525 -66.4154 138° Southeast  Level FlightAware Approximate
03:10AM -3.1501 -66.3282 138° Southeast  Level FlightAware Approximate
03:11AM -3.2477 -66.2410 138° Southeast  Level FlightAware Approximate
03:12AM -3.3452 -66.1538 138° Southeast  Level FlightAware Approximate
03:13AM -3.4428 -66.0666 138° Southeast  Level FlightAware Approximate
03:14AM -3.5404 -65.9793 138° Southeast  Level FlightAware Approximate
03:15AM -3.6379 -65.8920 138° Southeast  Level FlightAware Approximate
03:16AM -3.7354 -65.8047 138° Southeast  Level FlightAware Approximate
03:17AM -3.8330 -65.7174 138° Southeast  Level FlightAware Approximate
03:18AM -3.9305 -65.6301 138° Southeast  Level FlightAware Approximate
03:19AM -4.0280 -65.5427 138° Southeast  Level FlightAware Approximate
03:20AM -4.1255 -65.4553 138° Southeast  Level FlightAware Approximate
03:21AM -4.2230 -65.3679 138° Southeast  Level FlightAware Approximate
03:22AM -4.3205 -65.2805 138° Southeast  Level FlightAware Approximate
03:23AM -4.4179 -65.1930 138° Southeast  Level FlightAware Approximate
03:24AM -4.5154 -65.1056 138° Southeast  Level FlightAware Approximate
03:25AM -4.6128 -65.0181 138° Southeast  Level FlightAware Approximate
03:26AM -4.7103 -64.9305 138° Southeast  Level FlightAware Approximate
03:27AM -4.8077 -64.8430 138° Southeast  Level FlightAware Approximate
03:28AM -4.9051 -64.7554 138° Southeast  Level FlightAware Approximate
03:29AM -5.0025 -64.6678 138° Southeast  Level FlightAware Approximate
03:30AM -5.1001 -64.5801 138° Southeast  Level FlightAware Approximate
03:31AM -5.1976 -64.4923 138° Southeast  Level FlightAware Approximate
03:32AM -5.2952 -64.4044 138° Southeast  Level FlightAware Approximate
03:33AM -5.3927 -64.3166 138° Southeast  Level FlightAware Approximate
03:34AM -5.4902 -64.2287 138° Southeast  Level FlightAware Approximate
03:35AM -5.5877 -64.1408 138° Southeast  Level FlightAware Approximate
03:36AM -5.6852 -64.0529 138° Southeast  Level FlightAware Approximate
03:37AM -5.7827 -63.9649 138° Southeast  Level FlightAware Approximate
03:38AM -5.8801 -63.8769 138° Southeast  Level FlightAware Approximate
03:39AM -5.9776 -63.7889 138° Southeast  Level FlightAware Approximate
03:40AM -6.0750 -63.7008 138° Southeast  Level FlightAware Approximate
03:41AM -6.1725 -63.6127 138° Southeast  Level FlightAware Approximate
03:42AM -6.2699 -63.5246 138° Southeast  Level FlightAware Approximate
03:43AM -6.3672 -63.4364 138° Southeast  Level FlightAware Approximate
03:44AM -6.4646 -63.3482 138° Southeast  Level FlightAware Approximate
03:45AM -6.5620 -63.2600 138° Southeast  Level FlightAware Approximate
03:46AM -6.6593 -63.1717 138° Southeast  Level FlightAware Approximate
03:47AM -6.7567 -63.0834 138° Southeast  Level FlightAware Approximate
03:48AM -6.8540 -62.9951 138° Southeast  Level FlightAware Approximate
03:49AM -6.9513 -62.9067 138° Southeast  Level FlightAware Approximate
03:50AM -7.0486 -62.8183 138° Southeast  Level FlightAware Approximate
03:51AM -7.1458 -62.7299 138° Southeast  Level FlightAware Approximate
03:52AM -7.2431 -62.6414 138° Southeast  Level FlightAware Approximate
03:53AM -7.3403 -62.5529 138° Southeast  Level FlightAware Approximate
03:54AM -7.4375 -62.4643 138° Southeast  Level FlightAware Approximate
03:55AM -7.5347 -62.3757 138° Southeast  Level FlightAware Approximate
03:56AM -7.6319 -62.2871 138° Southeast  Level FlightAware Approximate
03:57AM -7.7291 -62.1984 138° Southeast  Level FlightAware Approximate
03:58AM -7.8262 -62.1097 138° Southeast  Level FlightAware Approximate
03:59AM -7.9233 -62.0209 138° Southeast  Level FlightAware Approximate
04:00AM -8.0204 -61.9321 138° Southeast  Level FlightAware Approximate
04:01AM -8.1173 -61.8434 138° Southeast  Level FlightAware Approximate
04:02AM -8.2142 -61.7547 138° Southeast  Level FlightAware Approximate
04:03AM -8.3111 -61.6659 138° Southeast  Level FlightAware Approximate
04:04AM -8.4080 -61.5771 138° Southeast  Level FlightAware Approximate
04:05AM -8.5048 -61.4883 138° Southeast  Level FlightAware Approximate
04:06AM -8.6016 -61.3993 138° Southeast  Level FlightAware Approximate
04:07AM -8.6984 -61.3104 138° Southeast  Level FlightAware Approximate
04:08AM -8.7952 -61.2214 138° Southeast  Level FlightAware Approximate
04:09AM -8.8919 -61.1323 138° Southeast  Level FlightAware Approximate
04:10AM -8.9887 -61.0433 138° Southeast  Level FlightAware Approximate
04:11AM -9.0854 -60.9541 138° Southeast  Level FlightAware Approximate
04:12AM -9.1821 -60.8649 138° Southeast  Level FlightAware Approximate
04:13AM -9.2788 -60.7757 138° Southeast  Level FlightAware Approximate
04:14AM -9.3754 -60.6864 138° Southeast  Level FlightAware Approximate
04:15AM -9.4720 -60.5970 138° Southeast  Level FlightAware Approximate
04:16AM -9.5686 -60.5077 138° Southeast  Level FlightAware Approximate
04:17AM -9.6652 -60.4182 138° Southeast  Level FlightAware Approximate
04:18AM -9.7618 -60.3287 138° Southeast  Level FlightAware Approximate
04:19AM -9.8583 -60.2392 138° Southeast  Level FlightAware Approximate
04:20AM -9.9548 -60.1496 138° Southeast  Level FlightAware Approximate
04:21AM -10.0513 -60.0600 138° Southeast  Level FlightAware Approximate
04:22AM -10.1481 -59.9699 138° Southeast  Level FlightAware Approximate
04:23AM -10.2449 -59.8799 138° Southeast  Level FlightAware Approximate
04:24AM -10.3416 -59.7897 138° Southeast  Level FlightAware Approximate
04:25AM -10.4383 -59.6996 137° Southeast  Level FlightAware Approximate
04:26AM -10.5350 -59.6093 137° Southeast  Level FlightAware Approximate
04:27AM -10.6317 -59.5190 137° Southeast  Level FlightAware Approximate
04:28AM -10.7284 -59.4287 137° Southeast  Level FlightAware Approximate
04:29AM -10.8250 -59.3383 137° Southeast  Level FlightAware Approximate
04:30AM -10.9216 -59.2478 137° Southeast  Level FlightAware Approximate
04:31AM -11.0182 -59.1573 137° Southeast  Level FlightAware Approximate
04:32AM -11.1147 -59.0667 137° Southeast  Level FlightAware Approximate
04:33AM -11.2112 -58.9761 137° Southeast  Level FlightAware Approximate
04:34AM -11.3077 -58.8854 137° Southeast  Level FlightAware Approximate
04:35AM -11.4042 -58.7946 137° Southeast  Level FlightAware Approximate
04:36AM -11.5006 -58.7038 137° Southeast  Level FlightAware Approximate
04:37AM -11.5970 -58.6129 137° Southeast  Level FlightAware Approximate
04:38AM -11.6934 -58.5219 137° Southeast  Level FlightAware Approximate
04:39AM -11.7897 -58.4309 137° Southeast  Level FlightAware Approximate
04:40AM -11.8860 -58.3398 137° Southeast  Level FlightAware Approximate
04:41AM -11.9823 -58.2487 137° Southeast  Level FlightAware Approximate
04:42AM -12.0786 -58.1575 137° Southeast  Level FlightAware Approximate
04:43AM -12.1748 -58.0662 137° Southeast  Level FlightAware Approximate
04:44AM -12.2710 -57.9749 137° Southeast  Level FlightAware Approximate
04:45AM -12.3672 -57.8835 137° Southeast  Level FlightAware Approximate
04:46AM -12.4633 -57.7920 137° Southeast  Level FlightAware Approximate
04:47AM -12.5594 -57.7004 137° Southeast  Level FlightAware Approximate
04:48AM -12.6555 -57.6088 137° Southeast  Level FlightAware Approximate
04:49AM -12.7516 -57.5172 137° Southeast  Level FlightAware Approximate
04:50AM -12.8474 -57.4256 137° Southeast  Level FlightAware Approximate
04:51AM -12.9432 -57.3339 137° Southeast  Level FlightAware Approximate
04:52AM -13.0390 -57.2422 137° Southeast  Level FlightAware Approximate
04:53AM -13.1348 -57.1504 137° Southeast  Level FlightAware Approximate
04:54AM -13.2305 -57.0585 137° Southeast  Level FlightAware Approximate
04:55AM -13.3262 -56.9666 137° Southeast  Level FlightAware Approximate
04:56AM -13.4220 -56.8744 137° Southeast  Level FlightAware Approximate
04:57AM -13.5178 -56.7821 137° Southeast  Level FlightAware Approximate
04:58AM -13.6135 -56.6898 137° Southeast  Level FlightAware Approximate
04:59AM -13.7092 -56.5974 137° Southeast  Level FlightAware Approximate
05:00AM -13.8049 -56.5049 137° Southeast  Level FlightAware Approximate
05:01AM -13.9006 -56.4124 137° Southeast  Level FlightAware Approximate
05:02AM -13.9962 -56.3197 137° Southeast  Level FlightAware Approximate
05:03AM -14.0918 -56.2270 137° Southeast  Level FlightAware Approximate
05:04AM -14.1873 -56.1343 137° Southeast  Level FlightAware Approximate
05:05AM -14.2828 -56.0414 137° Southeast  Level FlightAware Approximate
05:06AM -14.3783 -55.9484 137° Southeast  Level FlightAware Approximate
05:07AM -14.4737 -55.8554 137° Southeast  Level FlightAware Approximate
05:08AM -14.5691 -55.7623 137° Southeast  Level FlightAware Approximate
05:09AM -14.6645 -55.6692 137° Southeast  Level FlightAware Approximate
05:10AM -14.7598 -55.5759 137° Southeast  Level FlightAware Approximate
05:11AM -14.8551 -55.4826 137° Southeast  Level FlightAware Approximate
05:12AM -14.9503 -55.3891 137° Southeast  Level FlightAware Approximate
05:13AM -15.0456 -55.2956 137° Southeast  Level FlightAware Approximate
05:14AM -15.1407 -55.2020 136° Southeast  Level FlightAware Approximate
05:15AM -15.2359 -55.1083 136° Southeast  Level FlightAware Approximate
05:16AM -15.3310 -55.0146 136° Southeast  Level FlightAware Approximate
05:17AM -15.4260 -54.9207 136° Southeast  Level FlightAware Approximate
05:18AM -15.5211 -54.8268 136° Southeast  Level FlightAware Approximate
05:19AM -15.6160 -54.7328 136° Southeast  Level FlightAware Approximate
05:20AM -15.7110 -54.6387 136° Southeast  Level FlightAware Approximate
05:21AM -15.8059 -54.5445 136° Southeast  Level FlightAware Approximate
05:22AM -15.9007 -54.4502 136° Southeast  Level FlightAware Approximate
05:23AM -15.9956 -54.3558 136° Southeast  Level FlightAware Approximate
05:24AM -16.0903 -54.2614 136° Southeast  Level FlightAware Approximate
05:25AM -16.1850 -54.1668 136° Southeast  Level FlightAware Approximate
05:26AM -16.2797 -54.0722 136° Southeast  Level FlightAware Approximate
05:27AM -16.3744 -53.9775 136° Southeast  Level FlightAware Approximate
05:28AM -16.4690 -53.8826 136° Southeast  Level FlightAware Approximate
05:29AM -16.5636 -53.7877 136° Southeast  Level FlightAware Approximate
05:30AM -16.6581 -53.6927 136° Southeast  Level FlightAware Approximate
05:31AM -16.7526 -53.5976 136° Southeast  Level FlightAware Approximate
05:32AM -16.8470 -53.5024 136° Southeast  Level FlightAware Approximate
05:33AM -16.9414 -53.4071 136° Southeast  Level FlightAware Approximate
05:34AM -17.0357 -53.3117 136° Southeast  Level FlightAware Approximate
05:35AM -17.1300 -53.2162 136° Southeast  Level FlightAware Approximate
05:36AM -17.2243 -53.1206 136° Southeast  Level FlightAware Approximate
05:37AM -17.3185 -53.0249 136° Southeast  Level FlightAware Approximate
05:38AM -17.4127 -52.9292 136° Southeast  Level FlightAware Approximate
05:39AM -17.5068 -52.8333 136° Southeast  Level FlightAware Approximate
05:40AM -17.6009 -52.7373 136° Southeast  Level FlightAware Approximate
05:41AM -17.6949 -52.6412 136° Southeast  Level FlightAware Approximate
05:42AM -17.7889 -52.5451 136° Southeast  Level FlightAware Approximate
05:43AM -17.8828 -52.4488 136° Southeast  Level FlightAware Approximate
05:44AM -17.9767 -52.3524 136° Southeast  Level FlightAware Approximate
05:45AM -18.0705 -52.2559 136° Southeast  Level FlightAware Approximate
05:46AM -18.1643 -52.1593 136° Southeast  Level FlightAware Approximate
05:46AM -18.9990 -50.6720 136° Southeast 495 570 39,000  Level FlightAware
05:47AM -18.2581 -52.0626 136° Southeast  Level FlightAware Approximate
05:47AM -19.0760 -50.5890 134° Southeast 493 567 39,000  Level FlightAware
05:48AM -19.1410 -50.5190 135° Southeast 493 567 39,000  Level FlightAware
05:49AM -19.2110 -50.4430 134° Southeast 491 565 39,000  Level FlightAware
05:49AM -19.2800 -50.3670 134° Southeast 490 564 39,000  Level FlightAware
05:50AM -19.3430 -50.2990 134° Southeast 491 565 39,000  Level FlightAware
05:51AM -19.4130 -50.2220 134° Southeast 492 566 39,000  Level FlightAware
05:51AM -19.4670 -50.1640 135° Southeast 492 566 39,000  Level FlightAware
05:52AM -19.5380 -50.0870 134° Southeast 489 563 39,000  Level FlightAware
05:53AM -19.6000 -50.0180 134° Southeast 487 560 39,000  Level FlightAware
05:53AM -19.6560 -49.9570 134° Southeast 485 558 39,000  Level FlightAware
05:54AM -19.7250 -49.8820 134° Southeast 483 556 39,000  Level FlightAware
05:55AM -19.7860 -49.8140 134° Southeast 481 554 39,000  Level FlightAware
05:55AM -19.8420 -49.7520 134° Southeast 480 552 39,000  Level FlightAware
05:56AM -19.9030 -49.6860 135° Southeast 479 551 39,000  Level FlightAware
05:57AM -19.9680 -49.6140 134° Southeast 479 551 39,000  Level FlightAware
05:57AM -20.0320 -49.5430 134° Southeast 479 551 39,000  Level FlightAware
05:58AM -20.0950 -49.4740 134° Southeast 480 552 39,000  Level FlightAware
05:59AM -20.1620 -49.4000 134° Southeast 480 552 39,000  Level FlightAware
05:59AM -20.2270 -49.3280 134° Southeast 481 554 39,000  Level FlightAware
06:00AM -20.2800 -49.2690 134° Southeast 481 554 39,000  Level FlightAware
06:01AM -20.3470 -49.1950 134° Southeast 481 554 39,000  Level FlightAware
06:01AM -20.4100 -49.1260 134° Southeast 480 552 39,000  Level FlightAware
06:02AM -20.4820 -49.0550 137° Southeast 479 551 39,000  Level FlightAware
06:03AM -20.5440 -48.9960 138° Southeast 479 551 39,000  Level FlightAware
06:03AM -20.6180 -48.9290 140° Southeast 479 551 39,000  Level FlightAware
06:04AM -20.6900 -48.8630 139° Southeast 479 551 39,000  Level FlightAware
06:05AM -20.7600 -48.7990 139° Southeast 480 552 39,000  Level FlightAware
06:05AM -20.8250 -48.7400 140° Southeast 480 552 39,000  Level FlightAware
06:06AM -20.8940 -48.6760 139° Southeast 482 555 39,000  Level FlightAware
06:07AM -20.9610 -48.6140 139° Southeast 483 556 39,000  Level FlightAware
06:07AM -21.0220 -48.5580 139° Southeast 484 557 39,000  Level FlightAware
06:08AM -21.0980 -48.4880 139° Southeast 485 558 39,000  Level FlightAware
06:09AM -21.1660 -48.4240 139° Southeast 486 559 39,000  Level FlightAware
06:09AM -21.2340 -48.3620 140° Southeast 486 559 39,000  Level FlightAware
06:10AM -21.3070 -48.2940 139° Southeast 486 559 39,000  Level FlightAware
06:12AM -21.4470 -48.1600 138° Southeast 488 562 39,000  Level FlightAware
06:12AM -21.5400 -48.0770 140° Southeast 486 559 39,000  Level FlightAware
06:13AM -21.6180 -48.0040 139° Southeast 486 559 39,000  Level FlightAware
06:14AM -21.6790 -47.9470 139° Southeast 485 558 39,000  Level FlightAware
06:14AM -21.7390 -47.8910 139° Southeast 484 557 39,000  Level FlightAware
06:15AM -21.7670 -47.8640 138° Southeast 484 557 39,000 -1,020 Level FlightAware
06:16AM -21.9000 -47.7400 139° Southeast 486 559 37,400 -1,440 Descending FlightAware
06:17AM -21.9750 -47.6690 139° Southeast 484 557 36,100 -2,640 Descending FlightAware
06:17AM -22.0440 -47.6040 139° Southeast 493 567 33,800 -3,240 Descending FlightAware
06:18AM -22.1120 -47.5400 139° Southeast 498 573 31,800 -2,880 Descending FlightAware
06:19AM -22.1850 -47.4710 139° Southeast 494 568 29,900 -2,580 Descending FlightAware
06:19AM -22.2490 -47.4100 139° Southeast 485 558 28,400 -2,340 Descending FlightAware
06:20AM -22.3140 -47.3470 138° Southeast 476 548 26,900 -2,340 Descending FlightAware
06:21AM -22.3830 -47.2820 139° Southeast 467 537 25,300 -2,280 Descending FlightAware
06:21AM -22.4440 -47.2240 139° Southeast 457 526 23,900 -2,340 Descending FlightAware
06:22AM -22.5070 -47.1640 139° Southeast 448 516 22,300 -2,400 Descending FlightAware
06:23AM -22.5740 -47.1050 141° Southeast 435 501 20,700 -2,280 Descending FlightAware
06:24AM -22.6830 -47.0530 156° South 422 486 18,500 -2,100 Descending FlightAware
06:24AM -22.7550 -47.0230 159° South 408 470 17,200 -2,280 Descending FlightAware
06:25AM -22.8230 -46.9940 159° South 392 451 15,500 -1,920 Descending FlightAware
06:26AM -22.8890 -46.9670 159° South 368 423 14,700 -1,500 Descending FlightAware
06:26AM -22.9500 -46.9410 159° South 323 372 13,500 -1,800 Descending FlightAware
06:27AM -23.0040 -46.9180 159° South 300 345 12,300 -1,740 Descending FlightAware
06:28AM -23.0570 -46.8960 159° South 283 326 11,200 -1,500 Descending FlightAware
06:29AM -23.1080 -46.8750 159° South 285 328 10,200 -1,200 Descending FlightAware
06:29AM -23.1430 -46.8600 158° South 272 313 9,800 -1,080 Descending FlightAware
06:29AM -23.1760 -46.8460 159° South 271 312 9,200 -1,320 Descending FlightAware
06:30AM -23.2080 -46.8320 158° South 269 310 8,600 -1,200 Descending FlightAware
06:30AM -23.2410 -46.8180 159° South 267 307 8,100 -1,080 Descending FlightAware
06:31AM -23.2690 -46.8070 160° South 261 300 7,700 -780 Descending FlightAware
06:31AM -23.2930 -46.7970 159° South 250 288 7,500 -480 Descending FlightAware
06:32AM -23.3230 -46.7840 158° South 239 275 7,300 -420 Descending FlightAware
06:32AM -23.3400 -46.7760 157° South 238 274 7,200 -300 Descending FlightAware
06:32AM -23.3690 -46.7630 158° South 238 274 7,100 -480 Descending FlightAware
06:33AM -23.3920 -46.7440 143° Southeast 236 272 6,800 -1,200 Descending FlightAware
06:33AM -23.4110 -46.7270 141° Southeast 232 267 6,100 -1,500 Descending FlightAware
06:34AM -23.4330 -46.7060 139° Southeast 209 241 5,500 -1,080 Descending FlightAware
06:34AM -23.4510 -46.6840 132° Southeast 197 227 5,100 -720 Descending FlightAware
06:35AM -23.4600 -46.6650 117° Southeast 185 213 4,900 -660 Descending FlightAware
06:35AM -23.4720 -46.6370 115° Southeast 184 212 4,500 -720 Descending FlightAware
06:35AM -23.4740 -46.6260 101° East 186 214 4,400 -300 Descending FlightAware
06:36AM -23.4700 -46.6010 80° East 174 200 4,300 -600 Descending FlightAware
06:36AM -23.4640 -46.5800 73° East 173 199 3,900 -1,020 Descending FlightAware
06:37AM -23.4570 -46.5560 72° East 151 174 3,400 -900 Descending FlightAware
06:37AM -23.4540 -46.5440 75° East 148 170 3,200 -720 Descending FlightAware
06:37AM -23.4490 -46.5250 74° East 149 171 2,900 -660 Descending FlightAware
06:38AM -23.4460 -46.5130 75° East 147 169 2,700 -900 Descending FlightAware
06:38AM -23.4380 -46.4850 73° East 146 168 2,100 -960 Descending FlightAware
06:39AM -23.4350 -46.4720 76° East 94 108 -5,040 Descending FlightAware